Impacts TAF Board
For situational awareness. Not to be used for flight planning purposes.
IDs:

KSFO - San Francisco Intl, CA, US

Issued at 1121 UTC 21 Sep 2018
Updated at 1127 UTC 21 Sep 2018
Potential Impact None Slight Moderate High
Time<<22/12Z 22/13Z 22/14Z 22/15Z 22/16Z 22/17Z 22/18Z 22/19Z 22/20Z 22/21Z 22/22Z 22/23Z 23/00Z
Type PRVL PRVL PRVL PRVL PRVL PRVL
VIS >6 >6 >6 >6 >6 >6
CIG -- -- -- -- -- --
Cover SKC SKC SKC SKC SKC SKC
FltCat VFR VFR VFR VFR VFR VFR
WX -- -- -- -- -- --
WDir 30 30 30 30 30 30
WSpd 4 4 4 4 4 4
WGst -- -- -- -- -- --
Raw TAF
KSFO 211121Z 2112/2218 VRB03KT P6SM SKC
  FM211700 34004KT P6SM SKC
  FM212200 28015KT P6SM SKC
  FM220400 26008KT P6SM SKC
  FM221200 03004KT P6SM SKC


METAR Board
Radar Display
Forecast Discussion
For situational awareness. Not to be used for flight planning purposes.